Good Fortune — WDD9668 — position and weather

sailwx.info

Track history (hours):
 
Tides and Currents Weather Stations Pressure Air Temp Water Temp Dewpoint Dewpoint Depression Visibility Wind Speed Wind Dir Waves Ship Positions

Good Fortune

Owner: Wiebe, Lloyd D, Seattle, WA. More information available from US FCC via Universal Licensing System and Coast Guard Vessel Documentation Center.

Last reported at 2015-May-21 00:28 UTC. Time now 2015-May-22 14:35 UTC.
Position N 47°38' W 122°24'.

Length 20 m.

Type: Pleasure craft. MMSI: 367314650.

Date/timePositionNaut miles runAvg speedWind from/ knotsBaromVisibWave heightAir tempDewpointWater temp
2015-May-21 00:28N 47°38' W 122°24'0 0.5
2015-May-21 00:01N 47°38' W 122°24'4 8.8
2015-May-20 23:33N 47°42' W 122°26'010.6
2015-May-20 23:31N 47°42' W 122°26'1010.3
2015-May-20 22:33N 47°52' W 122°22'10 9.5
2015-May-20 21:33N 47°59' W 122°14'1 1.0
2015-May-20 20:33N 48°00' W 122°13'1 0.9
2015-May-20 19:33N 47°59' W 122°14'9 9.1
2015-May-20 18:33N 47°52' W 122°22'510.8
2015-May-20 18:05N 47°47' W 122°24'611.8
2015-May-20 17:33N 47°41' W 122°26'4 0.1
2015-May-18 18:30N 47°38' W 122°24'0 0.0
2015-May-18 17:26N 47°38' W 122°24'0 0.0
2015-May-16 19:24N 47°38' W 122°24'0 0.0
2015-May-16 16:36N 47°38' W 122°24'0 0.0
2015-May-16 16:20N 47°38' W 122°24'0 0.0
2015-May-16 15:16N 47°38' W 122°24'0 0.0
2015-May-16 14:34N 47°38' W 122°24'0 0.0
2015-May-16 13:32N 47°38' W 122°24'0 0.0
2015-May-16 12:28N 47°38' W 122°24'0 0.0
2015-May-16 11:33N 47°38' W 122°24'0 0.0
2015-May-16 10:33N 47°38' W 122°24'0 0.0
2015-May-16 10:08N 47°38' W 122°24'0 0.0
2015-May-16 09:33N 47°38' W 122°24'0 0.0
2015-May-16 08:31N 47°38' W 122°24'0 0.0
2015-May-16 07:28N 47°38' W 122°24'0 0.0
2015-May-16 06:32N 47°38' W 122°24'0 0.0
2015-May-16 05:26N 47°38' W 122°24'0 0.0
2015-May-16 03:27N 47°38' W 122°24'0 0.0
2015-May-16 02:28N 47°38' W 122°24'0 0.0
2015-May-16 01:30N 47°38' W 122°24'0 0.0
2015-May-16 00:23N 47°38' W 122°24'0 0.0
2015-May-16 00:10N 47°38' W 122°24'0 0.0
2015-May-15 23:30N 47°38' W 122°24'0 0.0
2015-May-15 22:04N 47°38' W 122°24'0 0.0
2015-May-15 21:11N 47°38' W 122°24'0 0.0
2015-May-15 18:23N 47°38' W 122°24'0 0.0
2015-May-15 17:14N 47°38' W 122°24'0 0.0
2015-May-15 13:27N 47°38' W 122°24'0 0.0
2015-May-15 09:12N 47°38' W 122°24'0 0.0
2015-May-15 08:10N 47°38' W 122°24'0 0.0
2015-May-15 02:16N 47°38' W 122°24'0 0.0
2015-May-15 01:06N 47°38' W 122°24'0 0.0
2015-May-15 00:30N 47°38' W 122°24'0 0.0
2015-May-14 23:32N 47°38' W 122°24'0 0.0
2015-May-14 22:32N 47°38' W 122°24'0 0.0
2015-May-14 20:32N 47°38' W 122°24'0 0.0
2015-May-14 18:31N 47°38' W 122°24'0 0.0
2015-May-14 16:36N 47°38' W 122°24'0 0.0
2015-May-14 11:50N 47°38' W 122°24'0 0.0
2015-May-14 07:18N 47°38' W 122°24'0 0.0
2015-May-14 06:08N 47°38' W 122°24'0 0.0
2015-May-14 04:23N 47°38' W 122°24'0 0.0
2015-May-14 02:37N 47°38' W 122°24'0 0.0
2015-May-14 00:07N 47°38' W 122°24'0 0.0
2015-May-13 22:41N 47°38' W 122°24'0 0.0
2015-May-13 22:08N 47°38' W 122°24'0 0.0
2015-May-13 22:06N 47°38' W 122°24'0 0.0
2015-May-13 20:11N 47°38' W 122°24'0 0.0
2015-May-13 18:32N 47°38' W 122°24'0 0.0
2015-May-13 17:23N 47°38' W 122°24'0 2.9
2015-May-13 17:15N 47°38' W 122°24'0 0.7
2015-May-13 16:33N 47°38' W 122°25'213.3
2015-May-13 16:25N 47°37' W 122°22'  
Track history (hours):
 
Tides and Currents Weather Stations Pressure Air Temp Water Temp Dewpoint Dewpoint Depression Visibility Wind Speed Wind Dir Waves Ship Positions

Good Fortune

Owner: Wiebe, Lloyd D, Seattle, WA. More information available from US FCC via Universal Licensing System and Coast Guard Vessel Documentation Center.

Last reported at 2015-May-21 00:28 UTC. Time now 2015-May-22 14:35 UTC.
Position N 47°38' W 122°24'.

Length 20 m.

Type: Pleasure craft. MMSI: 367314650.

Date/timePositionNaut miles runAvg speedWind from/ knotsBaromVisibWave heightAir tempDewpointWater temp
2015-May-21 00:28N 47°38' W 122°24'0 0.5
2015-May-21 00:01N 47°38' W 122°24'4 8.8
2015-May-20 23:33N 47°42' W 122°26'010.6
2015-May-20 23:31N 47°42' W 122°26'1010.3
2015-May-20 22:33N 47°52' W 122°22'10 9.5
2015-May-20 21:33N 47°59' W 122°14'1 1.0
2015-May-20 20:33N 48°00' W 122°13'1 0.9
2015-May-20 19:33N 47°59' W 122°14'9 9.1
2015-May-20 18:33N 47°52' W 122°22'510.8
2015-May-20 18:05N 47°47' W 122°24'611.8
2015-May-20 17:33N 47°41' W 122°26'4 0.1
2015-May-18 18:30N 47°38' W 122°24'0 0.0
2015-May-18 17:26N 47°38' W 122°24'0 0.0
2015-May-16 19:24N 47°38' W 122°24'0 0.0
2015-May-16 16:36N 47°38' W 122°24'0 0.0
2015-May-16 16:20N 47°38' W 122°24'0 0.0
2015-May-16 15:16N 47°38' W 122°24'0 0.0
2015-May-16 14:34N 47°38' W 122°24'0 0.0
2015-May-16 13:32N 47°38' W 122°24'0 0.0
2015-May-16 12:28N 47°38' W 122°24'0 0.0
2015-May-16 11:33N 47°38' W 122°24'0 0.0
2015-May-16 10:33N 47°38' W 122°24'0 0.0
2015-May-16 10:08N 47°38' W 122°24'0 0.0
2015-May-16 09:33N 47°38' W 122°24'0 0.0
2015-May-16 08:31N 47°38' W 122°24'0 0.0
2015-May-16 07:28N 47°38' W 122°24'0 0.0
2015-May-16 06:32N 47°38' W 122°24'0 0.0
2015-May-16 05:26N 47°38' W 122°24'0 0.0
2015-May-16 03:27N 47°38' W 122°24'0 0.0
2015-May-16 02:28N 47°38' W 122°24'0 0.0
2015-May-16 01:30N 47°38' W 122°24'0 0.0
2015-May-16 00:23N 47°38' W 122°24'0 0.0
2015-May-16 00:10N 47°38' W 122°24'0 0.0
2015-May-15 23:30N 47°38' W 122°24'0 0.0
2015-May-15 22:04N 47°38' W 122°24'0 0.0
2015-May-15 21:11N 47°38' W 122°24'0 0.0
2015-May-15 18:23N 47°38' W 122°24'0 0.0
2015-May-15 17:14N 47°38' W 122°24'0 0.0
2015-May-15 13:27N 47°38' W 122°24'0 0.0
2015-May-15 09:12N 47°38' W 122°24'0 0.0
2015-May-15 08:10N 47°38' W 122°24'0 0.0
2015-May-15 02:16N 47°38' W 122°24'0 0.0
2015-May-15 01:06N 47°38' W 122°24'0 0.0
2015-May-15 00:30N 47°38' W 122°24'0 0.0
2015-May-14 23:32N 47°38' W 122°24'0 0.0
2015-May-14 22:32N 47°38' W 122°24'0 0.0
2015-May-14 20:32N 47°38' W 122°24'0 0.0
2015-May-14 18:31N 47°38' W 122°24'0 0.0
2015-May-14 16:36N 47°38' W 122°24'0 0.0
2015-May-14 11:50N 47°38' W 122°24'0 0.0
2015-May-14 07:18N 47°38' W 122°24'0 0.0
2015-May-14 06:08N 47°38' W 122°24'0 0.0
2015-May-14 04:23N 47°38' W 122°24'0 0.0
2015-May-14 02:37N 47°38' W 122°24'0 0.0
2015-May-14 00:07N 47°38' W 122°24'0 0.0
2015-May-13 22:41N 47°38' W 122°24'0 0.0
2015-May-13 22:08N 47°38' W 122°24'0 0.0
2015-May-13 22:06N 47°38' W 122°24'0 0.0
2015-May-13 20:11N 47°38' W 122°24'0 0.0
2015-May-13 18:32N 47°38' W 122°24'0 0.0
2015-May-13 17:23N 47°38' W 122°24'0 2.9
2015-May-13 17:15N 47°38' W 122°24'0 0.7
2015-May-13 16:33N 47°38' W 122°25'213.3
2015-May-13 16:25N 47°37' W 122°22'  

Dump ship's entire track history